createdAt,value
2023-02-02T00:01:53.000Z,8.79
2023-02-02T00:04:38.261Z,8.77
2023-02-02T00:07:05.635Z,8.80
2023-02-02T00:09:33.661Z,8.76
2023-02-02T00:12:01.688Z,8.77
2023-02-02T00:14:29.196Z,8.76
2023-02-02T00:16:57.896Z,8.77
2023-02-02T00:19:28.562Z,8.79
2023-02-02T00:21:56.465Z,8.74
2023-02-02T00:24:24.115Z,8.80
2023-02-02T00:26:54.539Z,8.75
2023-02-02T00:29:25.101Z,8.74
2023-02-02T00:31:52.775Z,8.70
2023-02-02T00:34:21.176Z,8.70
2023-02-02T00:36:49.372Z,8.73
2023-02-02T00:39:22.872Z,8.69
2023-02-02T00:41:49.953Z,8.65
2023-02-02T00:44:35.388Z,8.69
2023-02-02T00:47:03.110Z,8.67
2023-02-02T00:49:30.601Z,8.68
2023-02-02T00:51:57.595Z,8.65
2023-02-02T00:54:24.596Z,8.68
2023-02-02T00:56:51.612Z,8.65
2023-02-02T00:59:18.600Z,8.61
2023-02-02T01:01:45.611Z,8.61
2023-02-02T01:04:12.624Z,8.62
2023-02-02T01:06:39.603Z,8.63
2023-02-02T01:09:06.591Z,8.66
2023-02-02T01:11:33.575Z,8.60
2023-02-02T01:14:00.612Z,8.62
2023-02-02T01:16:27.841Z,8.63
2023-02-02T01:18:55.108Z,8.62
2023-02-02T01:21:22.884Z,8.64
2023-02-02T01:23:50.060Z,8.63
2023-02-02T01:26:17.668Z,8.65
2023-02-02T01:28:45.694Z,8.64
2023-02-02T01:31:16.591Z,8.66
2023-02-02T01:33:45.588Z,8.65
2023-02-02T01:36:16.471Z,8.66
2023-02-02T01:38:43.984Z,8.65
2023-02-02T01:41:21.309Z,8.63
2023-02-02T01:43:49.320Z,8.63
2023-02-02T01:46:37.159Z,8.63
2023-02-02T01:49:16.731Z,8.64
2023-02-02T01:51:59.068Z,8.63
2023-02-02T01:54:40.356Z,8.62
2023-02-02T01:57:16.957Z,8.63
2023-02-02T01:59:46.825Z,8.62
2023-02-02T02:02:14.337Z,8.63
2023-02-02T02:04:42.544Z,8.62
2023-02-02T02:07:09.815Z,8.61
2023-02-02T02:09:37.117Z,8.62
2023-02-02T02:12:14.501Z,8.61
2023-02-02T02:15:06.808Z,8.64
2023-02-02T02:17:52.161Z,8.60
2023-02-02T02:21:15.323Z,8.62
2023-02-02T02:24:36.117Z,8.60
2023-02-02T02:27:48.072Z,8.60
2023-02-02T02:30:35.954Z,8.60
2023-02-02T02:33:20.052Z,8.64
2023-02-02T02:36:27.398Z,8.63
2023-02-02T02:39:10.769Z,8.63
2023-02-02T02:41:45.527Z,8.65
2023-02-02T02:44:16.887Z,8.64
2023-02-02T02:46:45.084Z,8.65
2023-02-02T02:49:13.820Z,8.64
2023-02-02T02:51:50.973Z,8.63
2023-02-02T02:54:34.197Z,8.65
2023-02-02T02:57:13.127Z,8.63
2023-02-02T03:00:31.972Z,8.61
2023-02-02T03:03:04.016Z,8.65
2023-02-02T03:05:43.635Z,8.64
2023-02-02T03:08:25.161Z,8.63
2023-02-02T03:10:55.156Z,8.61
2023-02-02T03:13:22.527Z,8.62
2023-02-02T03:15:49.601Z,8.55
2023-02-02T03:18:20.499Z,8.60
2023-02-02T03:20:47.503Z,8.60
2023-02-02T03:23:14.739Z,8.62
2023-02-02T03:25:42.375Z,8.60
2023-02-02T03:28:09.818Z,8.57
2023-02-02T03:30:39.850Z,8.56
2023-02-02T03:33:07.549Z,8.58
2023-02-02T03:35:34.509Z,8.61
2023-02-02T03:38:01.697Z,8.58
2023-02-02T03:40:29.153Z,8.58
2023-02-02T03:42:56.390Z,8.55
2023-02-02T03:45:24.199Z,8.54
2023-02-02T03:47:51.401Z,8.53
2023-02-02T03:50:18.409Z,8.49
2023-02-02T03:52:45.382Z,8.50
2023-02-02T03:55:12.539Z,8.47
2023-02-02T03:57:39.519Z,8.50
2023-02-02T04:00:07.529Z,8.49
2023-02-02T04:02:34.505Z,8.47
2023-02-02T04:05:01.566Z,8.48
2023-02-02T04:07:28.556Z,8.47
2023-02-02T04:09:55.502Z,8.46
2023-02-02T04:12:22.454Z,8.49
2023-02-02T04:14:49.404Z,8.45
2023-02-02T04:17:16.381Z,8.48
2023-02-02T04:19:43.351Z,8.49
2023-02-02T04:22:10.329Z,8.48
2023-02-02T04:24:38.190Z,8.47
2023-02-02T04:27:05.249Z,8.47
2023-02-02T04:29:32.217Z,8.48
2023-02-02T04:31:59.357Z,8.53
2023-02-02T04:34:26.293Z,8.48
2023-02-02T04:36:53.271Z,8.53
2023-02-02T04:39:20.328Z,8.53
2023-02-02T04:41:47.340Z,8.51
2023-02-02T04:44:18.248Z,8.50
2023-02-02T04:46:45.660Z,8.53
2023-02-02T04:49:12.900Z,8.54
2023-02-02T04:51:41.648Z,8.53
2023-02-02T04:54:08.717Z,8.56
2023-02-02T04:56:36.254Z,8.58
2023-02-02T04:59:03.453Z,8.59
2023-02-02T05:01:31.104Z,8.60
2023-02-02T05:03:58.618Z,8.57
2023-02-02T05:06:25.793Z,8.59
2023-02-02T05:08:52.794Z,8.62
2023-02-02T05:11:23.415Z,8.59
2023-02-02T05:13:53.360Z,8.64
2023-02-02T05:16:22.210Z,8.61
2023-02-02T05:18:55.457Z,8.62
2023-02-02T05:21:23.649Z,8.65
2023-02-02T05:23:50.977Z,8.66
2023-02-02T05:26:23.177Z,8.64
2023-02-02T05:28:50.373Z,8.62
2023-02-02T05:31:17.551Z,8.62
2023-02-02T05:33:45.316Z,8.67
2023-02-02T05:36:12.631Z,8.67
2023-02-02T05:38:39.721Z,8.66
2023-02-02T05:41:06.709Z,8.68
2023-02-02T05:43:34.334Z,8.70
2023-02-02T05:46:01.759Z,8.73
2023-02-02T05:48:29.069Z,8.74
2023-02-02T05:51:01.801Z,8.69
2023-02-02T05:53:31.217Z,8.67
2023-02-02T05:55:58.741Z,8.77
2023-02-02T05:58:25.994Z,8.76
2023-02-02T06:00:55.015Z,8.68
2023-02-02T06:03:23.763Z,8.73
2023-02-02T06:05:50.833Z,8.67
2023-02-02T06:08:17.988Z,8.68
2023-02-02T06:10:45.402Z,8.70
2023-02-02T06:13:12.517Z,8.68
2023-02-02T06:15:39.658Z,8.68
2023-02-02T06:18:08.387Z,8.66
2023-02-02T06:20:35.994Z,8.62
2023-02-02T06:23:04.124Z,8.63
2023-02-02T06:25:31.316Z,8.58
2023-02-02T06:27:59.732Z,8.56
2023-02-02T06:30:28.031Z,8.58
2023-02-02T06:32:55.215Z,8.54
2023-02-02T06:35:22.682Z,8.58
2023-02-02T06:37:50.000Z,8.53
2023-02-02T06:40:17.553Z,8.52
2023-02-02T06:42:44.502Z,8.50
2023-02-02T06:45:12.232Z,8.55
2023-02-02T06:47:39.244Z,9.89
2023-02-02T06:50:06.506Z,10.56
2023-02-02T06:52:33.610Z,11.01
2023-02-02T06:55:00.619Z,11.18
2023-02-02T06:57:27.717Z,11.41
2023-02-02T06:59:54.714Z,11.56
2023-02-02T07:02:23.464Z,11.72
2023-02-02T07:04:51.443Z,11.87
2023-02-02T07:07:18.440Z,11.45
2023-02-02T07:09:45.488Z,11.33
2023-02-02T07:12:12.445Z,11.71
2023-02-02T07:14:39.414Z,11.76
2023-02-02T07:17:06.476Z,11.66
2023-02-02T07:19:33.738Z,11.66
2023-02-02T07:22:00.737Z,11.76
2023-02-02T07:24:27.746Z,12.00
2023-02-02T07:26:55.132Z,12.17
2023-02-02T07:29:22.114Z,12.09
2023-02-02T07:31:49.156Z,11.77
2023-02-02T07:34:16.264Z,11.68
2023-02-02T07:36:43.285Z,11.77
2023-02-02T07:39:11.593Z,11.76
2023-02-02T07:41:38.999Z,11.81
2023-02-02T07:44:07.520Z,11.75
2023-02-02T07:46:34.519Z,11.79
2023-02-02T07:49:02.482Z,11.93
2023-02-02T07:51:29.414Z,11.89
2023-02-02T07:53:58.542Z,11.99
2023-02-02T07:56:28.632Z,11.91
2023-02-02T07:58:57.028Z,11.90
2023-02-02T08:01:26.568Z,11.75
2023-02-02T08:03:55.747Z,11.98
2023-02-02T08:06:25.931Z,11.81
2023-02-02T08:08:53.060Z,11.73
2023-02-02T08:11:22.871Z,11.68
2023-02-02T08:13:53.805Z,11.88
2023-02-02T08:16:22.363Z,11.97
2023-02-02T08:18:50.143Z,11.68
2023-02-02T08:21:18.285Z,11.79
2023-02-02T08:23:45.964Z,11.88
2023-02-02T08:26:30.572Z,11.66
2023-02-02T08:29:05.034Z,11.58
2023-02-02T08:31:36.254Z,11.80
2023-02-02T08:34:04.464Z,11.03
2023-02-02T08:36:31.855Z,11.28
2023-02-02T08:39:07.334Z,11.35
2023-02-02T08:41:35.036Z,11.50
2023-02-02T08:44:04.780Z,11.47
2023-02-02T08:46:31.745Z,11.39
2023-02-02T08:48:59.541Z,11.18
2023-02-02T08:51:26.672Z,10.48
2023-02-02T08:53:53.655Z,10.31
2023-02-02T08:56:22.827Z,10.81
2023-02-02T08:58:55.640Z,11.18
2023-02-02T09:01:32.064Z,11.17
2023-02-02T09:04:07.847Z,11.23
2023-02-02T09:06:40.386Z,11.20
2023-02-02T09:09:11.208Z,11.32
2023-02-02T09:11:39.324Z,11.01
2023-02-02T09:14:07.015Z,11.42
2023-02-02T09:16:35.989Z,11.16
2023-02-02T09:19:04.029Z,11.21
2023-02-02T09:21:31.022Z,11.35
2023-02-02T09:23:58.182Z,11.12
2023-02-02T09:26:28.370Z,11.54
2023-02-02T09:29:04.691Z,11.97
2023-02-02T09:31:35.948Z,12.09
2023-02-02T09:34:09.061Z,12.02
2023-02-02T09:36:36.977Z,12.10
2023-02-02T09:39:06.021Z,11.85
2023-02-02T09:41:39.366Z,12.13
2023-02-02T09:44:33.575Z,11.99
2023-02-02T09:47:18.031Z,12.19
2023-02-02T09:50:16.996Z,12.20
2023-02-02T09:52:56.366Z,12.31
2023-02-02T09:55:46.155Z,12.30
2023-02-02T09:58:23.664Z,12.30
2023-02-02T10:01:07.486Z,12.33
2023-02-02T10:03:58.560Z,12.12
2023-02-02T10:06:40.105Z,12.18
2023-02-02T10:09:43.458Z,12.30
2023-02-02T10:12:49.904Z,12.23
2023-02-02T10:15:37.194Z,12.10
2023-02-02T10:18:45.272Z,11.99
2023-02-02T10:21:58.885Z,12.02
2023-02-02T10:24:29.537Z,12.17
2023-02-02T10:27:08.892Z,12.00
2023-02-02T10:29:49.139Z,11.97
2023-02-02T10:32:32.506Z,11.86
2023-02-02T10:35:29.224Z,11.72
2023-02-02T10:38:02.331Z,11.74
2023-02-02T10:40:43.061Z,11.90
2023-02-02T10:43:59.873Z,11.85
2023-02-02T10:46:52.946Z,12.05
2023-02-02T10:49:31.918Z,11.90
2023-02-02T10:52:13.502Z,11.74
2023-02-02T10:55:04.110Z,11.86
2023-02-02T10:58:05.031Z,11.84
2023-02-02T11:00:44.010Z,12.09
2023-02-02T11:03:13.964Z,11.98
2023-02-02T11:06:00.214Z,12.03
2023-02-02T11:08:56.706Z,12.00
2023-02-02T11:11:42.515Z,11.98
2023-02-02T11:14:09.728Z,12.07
2023-02-02T11:16:44.392Z,12.01
2023-02-02T11:19:32.251Z,12.00
2023-02-02T11:22:03.368Z,12.16
2023-02-02T11:24:45.200Z,12.28
2023-02-02T11:27:22.700Z,12.19
2023-02-02T11:29:53.836Z,12.31
2023-02-02T11:32:35.506Z,12.33
2023-02-02T11:35:08.603Z,12.12
2023-02-02T11:37:37.174Z,11.95
2023-02-02T11:40:45.516Z,11.76
2023-02-02T11:43:29.289Z,12.01
2023-02-02T11:46:06.079Z,12.14
2023-02-02T11:48:47.461Z,12.20
2023-02-02T11:51:27.411Z,12.23
2023-02-02T11:54:25.872Z,12.04
2023-02-02T11:56:56.155Z,12.26
2023-02-02T11:59:39.235Z,12.35
2023-02-02T12:02:24.819Z,12.14
2023-02-02T12:05:12.072Z,12.16
2023-02-02T12:07:40.930Z,12.13
2023-02-02T12:10:50.693Z,11.93
2023-02-02T12:13:23.229Z,12.05
2023-02-02T12:16:09.479Z,12.28
2023-02-02T12:19:00.723Z,12.03
2023-02-02T12:22:12.632Z,12.22
2023-02-02T12:24:55.787Z,12.06
2023-02-02T12:27:40.034Z,12.25
2023-02-02T12:30:17.664Z,12.25
2023-02-02T12:33:22.705Z,12.34
2023-02-02T12:36:12.050Z,12.43
2023-02-02T12:39:30.067Z,12.37
2023-02-02T12:42:28.317Z,12.27
2023-02-02T12:45:23.084Z,12.46
2023-02-02T12:48:11.596Z,12.48
2023-02-02T12:51:35.266Z,12.58
2023-02-02T12:54:47.574Z,12.45
2023-02-02T12:57:53.674Z,12.34
2023-02-02T13:00:40.795Z,12.31
2023-02-02T13:03:35.311Z,12.34
2023-02-02T13:09:48.451Z,12.20
2023-02-02T13:12:19.873Z,12.07
2023-02-02T13:14:51.056Z,12.27
2023-02-02T13:17:23.352Z,12.42
2023-02-02T13:19:54.403Z,12.45
2023-02-02T13:22:41.081Z,12.51
2023-02-02T13:25:43.950Z,12.32
2023-02-02T13:28:31.894Z,12.28
2023-02-02T13:31:05.411Z,12.07
2023-02-02T13:33:37.310Z,12.19
2023-02-02T13:36:16.749Z,12.21
2023-02-02T13:38:45.928Z,11.95
2023-02-02T13:41:13.727Z,12.20
2023-02-02T13:44:06.094Z,12.31
2023-02-02T13:47:21.183Z,12.21
2023-02-02T13:49:54.483Z,12.14
2023-02-02T13:52:42.778Z,12.30
2023-02-02T13:55:56.241Z,12.43
2023-02-02T13:58:53.319Z,12.23
2023-02-02T14:01:21.311Z,12.42
2023-02-02T14:04:19.878Z,12.46
2023-02-02T14:07:06.165Z,12.56
2023-02-02T14:09:37.742Z,12.57
2023-02-02T14:12:11.418Z,12.46
2023-02-02T14:14:46.322Z,12.15
2023-02-02T14:17:19.289Z,12.30
2023-02-02T14:20:09.075Z,12.33
2023-02-02T14:22:40.879Z,12.38
2023-02-02T14:25:29.448Z,12.23
2023-02-02T14:28:03.755Z,12.12
2023-02-02T14:30:38.522Z,12.19
2023-02-02T14:33:37.911Z,12.39
2023-02-02T14:36:12.728Z,12.52
2023-02-02T14:39:06.605Z,12.41
2023-02-02T14:42:10.116Z,12.21
2023-02-02T14:44:38.583Z,12.21
2023-02-02T14:47:51.952Z,12.31
2023-02-02T14:50:47.229Z,12.28
2023-02-02T14:53:26.307Z,12.29
2023-02-02T14:56:16.884Z,12.28
2023-02-02T14:58:51.143Z,12.27
2023-02-02T15:01:18.154Z,12.13
2023-02-02T15:03:56.158Z,12.29
2023-02-02T15:06:23.002Z,12.29
2023-02-02T15:09:28.359Z,12.32
2023-02-02T15:12:03.973Z,12.47
2023-02-02T15:14:58.597Z,12.32
2023-02-02T15:17:49.000Z,12.43
2023-02-02T15:20:32.157Z,12.57
2023-02-02T15:23:33.154Z,12.66
2023-02-02T15:26:24.956Z,12.65
2023-02-02T15:29:01.159Z,12.61
2023-02-02T15:31:45.733Z,12.62
2023-02-02T15:34:45.586Z,12.68
2023-02-02T15:37:26.197Z,12.58
2023-02-02T15:39:57.184Z,12.62
2023-02-02T15:42:54.298Z,12.71
2023-02-02T15:45:43.318Z,12.89
2023-02-02T15:48:45.795Z,12.89
2023-02-02T15:51:17.722Z,12.87
2023-02-02T15:53:48.263Z,12.85
2023-02-02T15:56:41.301Z,12.92
2023-02-02T15:59:27.833Z,12.94
2023-02-02T16:02:17.089Z,10.47
2023-02-02T16:04:44.776Z,10.31
2023-02-02T16:07:33.898Z,10.24
2023-02-02T16:10:07.749Z,10.18
2023-02-02T16:12:35.538Z,10.20
2023-02-02T16:15:02.503Z,10.15
2023-02-02T16:17:35.481Z,10.15
2023-02-02T16:20:11.155Z,10.14
2023-02-02T16:22:40.599Z,10.20
2023-02-02T16:25:15.588Z,10.11
2023-02-02T16:27:46.753Z,10.16
2023-02-02T16:30:30.760Z,10.15
2023-02-02T16:32:58.019Z,10.13
2023-02-02T16:35:38.481Z,10.15
2023-02-02T16:38:37.355Z,10.14
2023-02-02T16:41:07.319Z,10.16
2023-02-02T16:43:36.594Z,10.16
2023-02-02T16:46:16.517Z,10.18
2023-02-02T16:48:55.712Z,10.17
2023-02-02T16:51:29.273Z,10.16
2023-02-02T16:54:07.521Z,10.18
2023-02-02T16:56:49.644Z,10.16
2023-02-02T16:59:30.151Z,10.18
2023-02-02T17:02:21.435Z,10.18
2023-02-02T17:05:02.833Z,10.20
2023-02-02T17:07:31.706Z,10.22
2023-02-02T17:10:16.479Z,10.21
2023-02-02T17:12:45.632Z,10.28
2023-02-02T17:15:18.389Z,10.21
2023-02-02T17:17:48.467Z,10.28
2023-02-02T17:20:19.989Z,10.29
2023-02-02T17:22:58.273Z,10.32
2023-02-02T17:25:32.904Z,10.29
2023-02-02T17:28:02.872Z,10.30
2023-02-02T17:30:30.462Z,10.31
2023-02-02T17:32:57.768Z,10.32
2023-02-02T17:35:27.813Z,10.32
2023-02-02T17:37:57.734Z,10.33
2023-02-02T17:40:24.996Z,10.34
2023-02-02T17:42:53.881Z,10.34
2023-02-02T17:45:33.546Z,10.34
2023-02-02T17:48:01.806Z,10.30
2023-02-02T17:50:30.796Z,10.32
2023-02-02T17:52:58.406Z,10.33
2023-02-02T17:55:32.504Z,10.33
2023-02-02T17:57:59.525Z,10.34
2023-02-02T18:00:31.008Z,10.32
2023-02-02T18:03:09.581Z,10.36
2023-02-02T18:05:38.445Z,10.36
2023-02-02T18:08:05.883Z,10.35
2023-02-02T18:10:33.501Z,10.36
2023-02-02T18:13:00.513Z,10.35
2023-02-02T18:15:27.940Z,10.35
2023-02-02T18:18:00.345Z,10.33
2023-02-02T18:20:27.781Z,10.33
2023-02-02T18:22:54.779Z,10.31
2023-02-02T18:25:21.736Z,10.31
2023-02-02T18:27:51.217Z,10.28
2023-02-02T18:30:18.826Z,10.28
2023-02-02T18:32:45.865Z,10.27
2023-02-02T18:35:14.065Z,10.25
2023-02-02T18:37:43.487Z,10.26
2023-02-02T18:40:11.540Z,10.27
2023-02-02T18:42:38.575Z,10.19
2023-02-02T18:45:06.777Z,10.21
2023-02-02T18:47:33.708Z,10.20
2023-02-02T18:50:01.526Z,10.19
2023-02-02T18:52:33.103Z,10.21
2023-02-02T18:55:00.435Z,10.20
2023-02-02T18:57:30.231Z,10.14
2023-02-02T18:59:57.213Z,10.12
2023-02-02T19:02:25.491Z,10.10
2023-02-02T19:05:11.129Z,10.09
2023-02-02T19:07:56.768Z,10.15
2023-02-02T19:10:26.389Z,10.10
2023-02-02T19:13:20.361Z,10.09
2023-02-02T19:15:49.701Z,10.14
2023-02-02T19:18:24.341Z,10.12
2023-02-02T19:20:52.621Z,10.13
2023-02-02T19:23:28.905Z,10.08
2023-02-02T19:25:56.498Z,10.07
2023-02-02T19:28:30.643Z,10.09
2023-02-02T19:31:01.470Z,10.05
2023-02-02T19:33:44.626Z,10.05
2023-02-02T19:36:17.249Z,10.07
2023-02-02T19:38:46.954Z,10.04
2023-02-02T19:41:20.929Z,10.07
2023-02-02T19:43:58.572Z,10.10
2023-02-02T19:46:29.572Z,10.12
2023-02-02T19:49:23.576Z,10.10
2023-02-02T19:51:58.508Z,10.15
2023-02-02T19:54:36.775Z,10.14
2023-02-02T19:57:40.761Z,10.13
2023-02-02T20:00:23.371Z,10.15
2023-02-02T20:02:58.947Z,10.08
2023-02-02T20:05:49.442Z,10.06
2023-02-02T20:08:31.832Z,10.05
2023-02-02T20:11:03.124Z,10.03
2023-02-02T20:13:45.503Z,10.02
2023-02-02T20:16:19.709Z,9.98
2023-02-02T20:18:54.043Z,9.95
2023-02-02T20:21:36.375Z,9.96
2023-02-02T20:24:04.329Z,9.92
2023-02-02T20:26:37.069Z,9.89
2023-02-02T20:29:44.032Z,9.90
2023-02-02T20:32:26.667Z,9.89
2023-02-02T20:34:57.143Z,9.90
2023-02-02T20:37:31.951Z,9.91
2023-02-02T20:40:29.026Z,9.93
2023-02-02T20:42:58.219Z,9.88
2023-02-02T20:45:25.800Z,9.91
2023-02-02T20:47:53.077Z,9.89
2023-02-02T20:50:22.203Z,9.88
2023-02-02T20:52:50.955Z,9.89
2023-02-02T20:55:18.273Z,9.88
2023-02-02T20:57:45.281Z,9.86
2023-02-02T21:00:16.081Z,9.87
2023-02-02T21:02:43.501Z,9.88
2023-02-02T21:05:10.648Z,9.87
2023-02-02T21:07:37.640Z,9.91
2023-02-02T21:10:05.370Z,9.91
2023-02-02T21:12:32.324Z,9.86
2023-02-02T21:14:59.387Z,9.85
2023-02-02T21:17:27.495Z,9.86
2023-02-02T21:19:54.749Z,9.84
2023-02-02T21:22:21.682Z,9.85
2023-02-02T21:24:48.641Z,9.86
2023-02-02T21:27:15.652Z,9.89
2023-02-02T21:29:42.617Z,9.85
2023-02-02T21:32:09.694Z,9.87
2023-02-02T21:34:37.721Z,9.89
2023-02-02T21:37:12.189Z,9.86
2023-02-02T21:39:39.276Z,9.87
2023-02-02T21:42:09.411Z,9.81
2023-02-02T21:44:40.109Z,9.85
2023-02-02T21:47:40.153Z,9.81
2023-02-02T21:50:21.027Z,9.81
2023-02-02T21:52:47.951Z,9.76
2023-02-02T21:55:36.953Z,9.79
2023-02-02T21:58:33.429Z,9.74
2023-02-02T22:01:14.132Z,9.73
2023-02-02T22:03:46.454Z,9.74
2023-02-02T22:06:27.884Z,9.73
2023-02-02T22:09:28.923Z,9.78
2023-02-02T22:12:01.967Z,9.73
2023-02-02T22:14:37.552Z,9.75
2023-02-02T22:17:24.746Z,9.75
2023-02-02T22:20:17.332Z,9.78
2023-02-02T22:22:47.785Z,9.77
2023-02-02T22:25:25.732Z,9.78
2023-02-02T22:27:58.313Z,9.73
2023-02-02T22:30:27.371Z,9.79
2023-02-02T22:32:55.403Z,9.74
2023-02-02T22:35:22.583Z,9.73
2023-02-02T22:37:49.572Z,9.77
2023-02-02T22:40:16.956Z,9.78
2023-02-02T22:42:44.000Z,9.76
2023-02-02T22:45:11.214Z,9.79
2023-02-02T22:47:38.315Z,9.77
2023-02-02T22:50:06.051Z,9.78
2023-02-02T22:52:32.967Z,9.79
2023-02-02T22:55:00.054Z,9.74
2023-02-02T22:57:26.958Z,9.77
2023-02-02T22:59:53.908Z,9.78
2023-02-02T23:02:20.937Z,9.76
2023-02-02T23:04:47.852Z,9.80
2023-02-02T23:07:14.755Z,9.73
2023-02-02T23:09:41.699Z,9.75
2023-02-02T23:12:08.652Z,9.74
2023-02-02T23:14:35.702Z,9.78
2023-02-02T23:17:02.712Z,9.76
2023-02-02T23:19:29.612Z,9.78
2023-02-02T23:21:56.620Z,9.78
2023-02-02T23:24:23.535Z,9.77
2023-02-02T23:26:50.663Z,9.79
2023-02-02T23:29:17.806Z,9.76
2023-02-02T23:31:44.791Z,9.77
2023-02-02T23:34:11.836Z,9.75
2023-02-02T23:36:38.848Z,9.77
2023-02-02T23:39:05.888Z,9.79
2023-02-02T23:41:32.881Z,9.76
2023-02-02T23:43:59.903Z,9.79
2023-02-02T23:46:27.083Z,9.77
2023-02-02T23:48:54.593Z,9.75
2023-02-02T23:51:21.568Z,9.78
2023-02-02T23:53:48.835Z,9.78
2023-02-02T23:56:17.146Z,9.77
2023-02-02T23:58:44.125Z,9.80
